Terminal Aerodrome Forecast
Issued by NWS

Home | Current Version | Previous Version | Text Only | Print | Product List | Glossary On
Versions: 1 2 3 4 5 6 7 8 9 10 11 12 13 14
217
FTUS46 KPDT 021738
TAFRDM
TAF
KRDM 021738Z 0218/0318 15005KT P6SM SCT060 OVC080
     FM022100 17006KT 6SM -SHRASN BR SCT035 OVC050
     FM030200 18006KT P6SM OVC040
     FM031500 17004KT P6SM SCT040 BKN120=

USA.gov is the U.S. government's official web portal to all federal, state and local government web resources and services.